sensor_id;sensor_type;location;lat;lon;timestamp;temperature;humidity
20714;DHT22;10518;50.742;4.226;2023-04-08T00:02:21;10.20;99.90
20714;DHT22;10518;50.742;4.226;2023-04-08T00:04:47;10.10;99.90
20714;DHT22;10518;50.742;4.226;2023-04-08T00:07:12;10.10;99.90
20714;DHT22;10518;50.742;4.226;2023-04-08T00:09:38;10.30;99.90
20714;DHT22;10518;50.742;4.226;2023-04-08T00:12:04;10.30;99.90
20714;DHT22;10518;50.742;4.226;2023-04-08T00:14:29;10.50;99.90
20714;DHT22;10518;50.742;4.226;2023-04-08T00:16:56;10.40;99.90
20714;DHT22;10518;50.742;4.226;2023-04-08T00:19:21;10.20;99.90
20714;DHT22;10518;50.742;4.226;2023-04-08T00:21:47;10.10;99.90
20714;DHT22;10518;50.742;4.226;2023-04-08T00:24:13;10.20;99.90
20714;DHT22;10518;50.742;4.226;2023-04-08T00:26:38;10.20;99.90
20714;DHT22;10518;50.742;4.226;2023-04-08T00:29:04;10.20;99.90
20714;DHT22;10518;50.742;4.226;2023-04-08T00:31:29;10.10;99.90
20714;DHT22;10518;50.742;4.226;2023-04-08T00:33:55;10.20;99.90
20714;DHT22;10518;50.742;4.226;2023-04-08T00:36:21;10.20;99.90
20714;DHT22;10518;50.742;4.226;2023-04-08T00:38:47;10.10;99.90
20714;DHT22;10518;50.742;4.226;2023-04-08T00:41:12;10.10;99.90
20714;DHT22;10518;50.742;4.226;2023-04-08T00:43:38;10.20;99.90
20714;DHT22;10518;50.742;4.226;2023-04-08T00:46:04;10.10;99.90
20714;DHT22;10518;50.742;4.226;2023-04-08T00:48:30;10.10;99.90
20714;DHT22;10518;50.742;4.226;2023-04-08T00:50:57;10.10;99.90
20714;DHT22;10518;50.742;4.226;2023-04-08T00:53:22;10.40;99.90
20714;DHT22;10518;50.742;4.226;2023-04-08T00:55:48;10.40;99.90
20714;DHT22;10518;50.742;4.226;2023-04-08T00:58:14;10.30;99.90
20714;DHT22;10518;50.742;4.226;2023-04-08T01:00:45;10.20;99.90
20714;DHT22;10518;50.742;4.226;2023-04-08T01:03:24;10.50;99.90
20714;DHT22;10518;50.742;4.226;2023-04-08T01:05:59;10.30;99.90
20714;DHT22;10518;50.742;4.226;2023-04-08T01:08:28;10.20;99.90
20714;DHT22;10518;50.742;4.226;2023-04-08T01:10:58;10.10;99.90
20714;DHT22;10518;50.742;4.226;2023-04-08T01:13:27;10.10;99.90
20714;DHT22;10518;50.742;4.226;2023-04-08T01:15:54;10.20;99.90
20714;DHT22;10518;50.742;4.226;2023-04-08T01:18:21;10.20;99.90
20714;DHT22;10518;50.742;4.226;2023-04-08T01:20:49;10.00;99.90
20714;DHT22;10518;50.742;4.226;2023-04-08T01:23:33;9.90;99.90
20714;DHT22;10518;50.742;4.226;2023-04-08T01:26:00;9.90;99.90
20714;DHT22;10518;50.742;4.226;2023-04-08T01:28:28;10.10;99.90
20714;DHT22;10518;50.742;4.226;2023-04-08T01:30:57;10.10;99.90
20714;DHT22;10518;50.742;4.226;2023-04-08T01:33:23;10.10;99.90
20714;DHT22;10518;50.742;4.226;2023-04-08T01:35:51;10.10;99.90
20714;DHT22;10518;50.742;4.226;2023-04-08T01:38:18;10.10;99.90
20714;DHT22;10518;50.742;4.226;2023-04-08T01:40:45;10.10;99.90
20714;DHT22;10518;50.742;4.226;2023-04-08T01:43:13;10.30;99.90
20714;DHT22;10518;50.742;4.226;2023-04-08T01:45:39;10.20;99.90
20714;DHT22;10518;50.742;4.226;2023-04-08T01:48:05;10.20;99.90
20714;DHT22;10518;50.742;4.226;2023-04-08T01:50:31;10.10;99.90
20714;DHT22;10518;50.742;4.226;2023-04-08T01:52:59;10.10;99.90
20714;DHT22;10518;50.742;4.226;2023-04-08T01:55:26;10.10;99.90
20714;DHT22;10518;50.742;4.226;2023-04-08T01:57:53;10.20;99.90
20714;DHT22;10518;50.742;4.226;2023-04-08T02:00:24;10.30;99.90
20714;DHT22;10518;50.742;4.226;2023-04-08T02:02:51;10.10;99.90
20714;DHT22;10518;50.742;4.226;2023-04-08T02:05:17;10.10;99.90
20714;DHT22;10518;50.742;4.226;2023-04-08T02:07:43;10.10;99.90
20714;DHT22;10518;50.742;4.226;2023-04-08T02:10:11;10.20;99.90
20714;DHT22;10518;50.742;4.226;2023-04-08T02:12:36;10.20;99.90
20714;DHT22;10518;50.742;4.226;2023-04-08T02:15:02;10.10;99.90
20714;DHT22;10518;50.742;4.226;2023-04-08T02:17:54;10.10;99.90
20714;DHT22;10518;50.742;4.226;2023-04-08T02:20:24;10.10;99.90
20714;DHT22;10518;50.742;4.226;2023-04-08T02:25:37;10.00;99.90
20714;DHT22;10518;50.742;4.226;2023-04-08T02:28:07;10.00;99.90
20714;DHT22;10518;50.742;4.226;2023-04-08T02:30:35;10.00;99.90
20714;DHT22;10518;50.742;4.226;2023-04-08T02:33:03;10.00;99.90
20714;DHT22;10518;50.742;4.226;2023-04-08T02:35:29;10.00;99.90
20714;DHT22;10518;50.742;4.226;2023-04-08T02:37:55;10.00;99.90
20714;DHT22;10518;50.742;4.226;2023-04-08T02:40:31;10.00;99.90
20714;DHT22;10518;50.742;4.226;2023-04-08T02:42:58;10.00;99.90
20714;DHT22;10518;50.742;4.226;2023-04-08T02:45:27;10.00;99.90
20714;DHT22;10518;50.742;4.226;2023-04-08T02:47:54;10.00;99.90
20714;DHT22;10518;50.742;4.226;2023-04-08T02:50:19;10.10;99.90
20714;DHT22;10518;50.742;4.226;2023-04-08T02:52:45;10.00;99.90
20714;DHT22;10518;50.742;4.226;2023-04-08T02:55:10;10.00;99.90
20714;DHT22;10518;50.742;4.226;2023-04-08T02:57:39;10.00;99.90
20714;DHT22;10518;50.742;4.226;2023-04-08T03:00:07;9.90;99.90
20714;DHT22;10518;50.742;4.226;2023-04-08T03:02:33;9.90;99.90
20714;DHT22;10518;50.742;4.226;2023-04-08T03:04:59;9.90;99.90
20714;DHT22;10518;50.742;4.226;2023-04-08T03:07:24;9.90;99.90
20714;DHT22;10518;50.742;4.226;2023-04-08T03:09:50;9.90;99.90
20714;DHT22;10518;50.742;4.226;2023-04-08T03:12:15;9.90;99.90
20714;DHT22;10518;50.742;4.226;2023-04-08T03:14:41;10.00;99.90
20714;DHT22;10518;50.742;4.226;2023-04-08T03:17:07;9.90;99.90
20714;DHT22;10518;50.742;4.226;2023-04-08T03:19:32;9.90;99.90
20714;DHT22;10518;50.742;4.226;2023-04-08T03:21:58;9.90;99.90
20714;DHT22;10518;50.742;4.226;2023-04-08T03:24:24;10.00;99.90
20714;DHT22;10518;50.742;4.226;2023-04-08T03:26:49;10.00;99.90
20714;DHT22;10518;50.742;4.226;2023-04-08T03:29:15;10.00;99.90
20714;DHT22;10518;50.742;4.226;2023-04-08T03:31:41;10.00;99.90
20714;DHT22;10518;50.742;4.226;2023-04-08T03:34:06;9.90;99.90
20714;DHT22;10518;50.742;4.226;2023-04-08T03:36:32;9.90;99.90
20714;DHT22;10518;50.742;4.226;2023-04-08T03:38:57;9.90;99.90
20714;DHT22;10518;50.742;4.226;2023-04-08T03:41:23;9.90;99.90
20714;DHT22;10518;50.742;4.226;2023-04-08T03:43:48;9.80;99.90
20714;DHT22;10518;50.742;4.226;2023-04-08T03:46:14;9.90;99.90
20714;DHT22;10518;50.742;4.226;2023-04-08T03:48:40;9.90;99.90
20714;DHT22;10518;50.742;4.226;2023-04-08T03:51:05;9.80;99.90
20714;DHT22;10518;50.742;4.226;2023-04-08T03:53:31;9.90;99.90
20714;DHT22;10518;50.742;4.226;2023-04-08T03:55:56;9.90;99.90
20714;DHT22;10518;50.742;4.226;2023-04-08T03:58:22;9.90;99.90
20714;DHT22;10518;50.742;4.226;2023-04-08T04:00:48;9.80;99.90
20714;DHT22;10518;50.742;4.226;2023-04-08T04:03:13;9.90;99.90
20714;DHT22;10518;50.742;4.226;2023-04-08T04:05:39;9.90;99.90
20714;DHT22;10518;50.742;4.226;2023-04-08T04:08:05;10.10;99.90
20714;DHT22;10518;50.742;4.226;2023-04-08T04:10:31;10.10;99.90
20714;DHT22;10518;50.742;4.226;2023-04-08T04:12:56;10.00;99.90
20714;DHT22;10518;50.742;4.226;2023-04-08T04:15:22;9.90;99.90
20714;DHT22;10518;50.742;4.226;2023-04-08T04:17:48;10.00;99.90
20714;DHT22;10518;50.742;4.226;2023-04-08T04:20:17;9.90;99.90
20714;DHT22;10518;50.742;4.226;2023-04-08T04:22:42;10.00;99.90
20714;DHT22;10518;50.742;4.226;2023-04-08T04:25:09;10.00;99.90
20714;DHT22;10518;50.742;4.226;2023-04-08T04:27:34;10.00;99.90
20714;DHT22;10518;50.742;4.226;2023-04-08T04:30:01;9.90;99.90
20714;DHT22;10518;50.742;4.226;2023-04-08T04:32:27;9.90;99.90
20714;DHT22;10518;50.742;4.226;2023-04-08T04:34:53;9.80;99.90
20714;DHT22;10518;50.742;4.226;2023-04-08T04:37:19;9.80;99.90
20714;DHT22;10518;50.742;4.226;2023-04-08T04:39:44;9.90;99.90
20714;DHT22;10518;50.742;4.226;2023-04-08T04:42:10;9.80;99.90
20714;DHT22;10518;50.742;4.226;2023-04-08T04:44:35;9.80;99.90
20714;DHT22;10518;50.742;4.226;2023-04-08T04:47:01;9.80;99.90
20714;DHT22;10518;50.742;4.226;2023-04-08T04:49:26;9.90;99.90
20714;DHT22;10518;50.742;4.226;2023-04-08T04:51:52;9.80;99.90
20714;DHT22;10518;50.742;4.226;2023-04-08T04:54:17;9.90;99.90
20714;DHT22;10518;50.742;4.226;2023-04-08T04:56:43;10.00;99.90
20714;DHT22;10518;50.742;4.226;2023-04-08T04:59:09;10.00;99.90
20714;DHT22;10518;50.742;4.226;2023-04-08T05:01:34;9.90;99.90
20714;DHT22;10518;50.742;4.226;2023-04-08T05:04:00;9.80;99.90
20714;DHT22;10518;50.742;4.226;2023-04-08T05:06:26;9.80;99.90
20714;DHT22;10518;50.742;4.226;2023-04-08T05:08:52;9.80;99.90
20714;DHT22;10518;50.742;4.226;2023-04-08T05:11:18;9.90;99.90
20714;DHT22;10518;50.742;4.226;2023-04-08T05:13:44;9.70;99.90
20714;DHT22;10518;50.742;4.226;2023-04-08T05:16:10;9.80;99.90
20714;DHT22;10518;50.742;4.226;2023-04-08T05:18:35;9.70;99.90
20714;DHT22;10518;50.742;4.226;2023-04-08T05:21:01;9.80;99.90
20714;DHT22;10518;50.742;4.226;2023-04-08T05:23:27;9.70;99.90
20714;DHT22;10518;50.742;4.226;2023-04-08T05:25:52;9.70;99.90
20714;DHT22;10518;50.742;4.226;2023-04-08T05:28:18;9.70;99.90
20714;DHT22;10518;50.742;4.226;2023-04-08T05:30:50;9.80;99.90
20714;DHT22;10518;50.742;4.226;2023-04-08T05:33:17;9.80;99.90
20714;DHT22;10518;50.742;4.226;2023-04-08T05:35:43;9.80;99.90
20714;DHT22;10518;50.742;4.226;2023-04-08T05:38:08;9.90;99.90
20714;DHT22;10518;50.742;4.226;2023-04-08T05:40:34;9.90;99.90
20714;DHT22;10518;50.742;4.226;2023-04-08T05:42:59;9.80;99.90
20714;DHT22;10518;50.742;4.226;2023-04-08T05:45:27;9.80;99.90
20714;DHT22;10518;50.742;4.226;2023-04-08T05:47:53;10.00;99.90
20714;DHT22;10518;50.742;4.226;2023-04-08T05:50:18;9.90;99.90
20714;DHT22;10518;50.742;4.226;2023-04-08T05:52:44;10.00;99.90
20714;DHT22;10518;50.742;4.226;2023-04-08T05:55:11;10.00;99.90
20714;DHT22;10518;50.742;4.226;2023-04-08T05:57:37;10.20;99.90
20714;DHT22;10518;50.742;4.226;2023-04-08T06:00:07;10.30;99.90
20714;DHT22;10518;50.742;4.226;2023-04-08T06:02:34;10.20;99.90
20714;DHT22;10518;50.742;4.226;2023-04-08T06:05:00;10.10;99.90
20714;DHT22;10518;50.742;4.226;2023-04-08T06:07:26;10.40;99.90
20714;DHT22;10518;50.742;4.226;2023-04-08T06:09:51;10.20;99.90
20714;DHT22;10518;50.742;4.226;2023-04-08T06:12:17;10.00;99.90
20714;DHT22;10518;50.742;4.226;2023-04-08T06:14:42;10.00;99.90
20714;DHT22;10518;50.742;4.226;2023-04-08T06:17:08;9.90;99.90
20714;DHT22;10518;50.742;4.226;2023-04-08T06:19:34;10.00;99.90
20714;DHT22;10518;50.742;4.226;2023-04-08T06:21:59;9.90;99.90
20714;DHT22;10518;50.742;4.226;2023-04-08T06:24:26;9.90;99.90
20714;DHT22;10518;50.742;4.226;2023-04-08T06:26:52;10.00;99.90
20714;DHT22;10518;50.742;4.226;2023-04-08T06:29:18;10.00;99.90
20714;DHT22;10518;50.742;4.226;2023-04-08T06:31:44;10.00;99.90
20714;DHT22;10518;50.742;4.226;2023-04-08T06:34:10;10.10;99.90
20714;DHT22;10518;50.742;4.226;2023-04-08T06:36:35;10.10;99.90
20714;DHT22;10518;50.742;4.226;2023-04-08T06:39:01;10.20;99.90
20714;DHT22;10518;50.742;4.226;2023-04-08T06:41:26;10.30;99.90
20714;DHT22;10518;50.742;4.226;2023-04-08T06:43:52;10.60;99.90
20714;DHT22;10518;50.742;4.226;2023-04-08T06:46:17;10.40;99.90
20714;DHT22;10518;50.742;4.226;2023-04-08T06:48:43;10.30;99.90
20714;DHT22;10518;50.742;4.226;2023-04-08T06:51:08;10.40;99.90
20714;DHT22;10518;50.742;4.226;2023-04-08T06:53:34;10.50;99.90
20714;DHT22;10518;50.742;4.226;2023-04-08T06:56:00;10.50;99.90
20714;DHT22;10518;50.742;4.226;2023-04-08T06:58:26;10.90;99.90
20714;DHT22;10518;50.742;4.226;2023-04-08T07:00:53;11.00;99.90
20714;DHT22;10518;50.742;4.226;2023-04-08T07:03:19;11.00;99.90
20714;DHT22;10518;50.742;4.226;2023-04-08T07:05:46;11.00;99.90
20714;DHT22;10518;50.742;4.226;2023-04-08T07:08:11;10.90;99.90
20714;DHT22;10518;50.742;4.226;2023-04-08T07:10:37;11.10;99.90
20714;DHT22;10518;50.742;4.226;2023-04-08T07:13:03;11.10;99.90
20714;DHT22;10518;50.742;4.226;2023-04-08T07:15:28;10.90;99.90
20714;DHT22;10518;50.742;4.226;2023-04-08T07:17:54;10.90;99.90
20714;DHT22;10518;50.742;4.226;2023-04-08T07:20:21;11.00;99.90
20714;DHT22;10518;50.742;4.226;2023-04-08T07:22:47;11.10;99.90
20714;DHT22;10518;50.742;4.226;2023-04-08T07:25:13;11.10;99.90
20714;DHT22;10518;50.742;4.226;2023-04-08T07:27:38;11.30;99.90
20714;DHT22;10518;50.742;4.226;2023-04-08T07:30:04;11.60;99.90
20714;DHT22;10518;50.742;4.226;2023-04-08T07:32:32;11.50;99.90
20714;DHT22;10518;50.742;4.226;2023-04-08T07:34:58;11.50;99.90
20714;DHT22;10518;50.742;4.226;2023-04-08T07:37:24;11.50;99.90
20714;DHT22;10518;50.742;4.226;2023-04-08T07:39:50;11.60;99.90
20714;DHT22;10518;50.742;4.226;2023-04-08T07:42:15;11.50;99.90
20714;DHT22;10518;50.742;4.226;2023-04-08T07:44:41;11.60;99.90
20714;DHT22;10518;50.742;4.226;2023-04-08T07:47:08;11.40;99.90
20714;DHT22;10518;50.742;4.226;2023-04-08T07:49:33;11.50;99.90
20714;DHT22;10518;50.742;4.226;2023-04-08T07:51:59;11.60;99.90
20714;DHT22;10518;50.742;4.226;2023-04-08T07:54:25;11.70;99.90
20714;DHT22;10518;50.742;4.226;2023-04-08T07:56:50;12.00;99.90
20714;DHT22;10518;50.742;4.226;2023-04-08T07:59:16;12.10;99.90
20714;DHT22;10518;50.742;4.226;2023-04-08T08:01:41;12.60;99.90
20714;DHT22;10518;50.742;4.226;2023-04-08T08:04:07;12.80;99.90
20714;DHT22;10518;50.742;4.226;2023-04-08T08:06:32;13.30;99.90
20714;DHT22;10518;50.742;4.226;2023-04-08T08:08:58;13.20;99.90
20714;DHT22;10518;50.742;4.226;2023-04-08T08:11:24;12.90;99.90
20714;DHT22;10518;50.742;4.226;2023-04-08T08:13:52;12.90;99.90
20714;DHT22;10518;50.742;4.226;2023-04-08T08:16:18;12.60;99.90
20714;DHT22;10518;50.742;4.226;2023-04-08T08:18:43;12.60;99.90
20714;DHT22;10518;50.742;4.226;2023-04-08T08:21:09;13.00;99.90
20714;DHT22;10518;50.742;4.226;2023-04-08T08:23:35;13.00;99.90
20714;DHT22;10518;50.742;4.226;2023-04-08T08:26:04;12.60;99.90
20714;DHT22;10518;50.742;4.226;2023-04-08T08:28:31;12.70;99.90
20714;DHT22;10518;50.742;4.226;2023-04-08T08:30:56;12.40;99.90
20714;DHT22;10518;50.742;4.226;2023-04-08T08:33:22;12.90;99.90
20714;DHT22;10518;50.742;4.226;2023-04-08T08:35:48;13.10;99.90
20714;DHT22;10518;50.742;4.226;2023-04-08T08:38:14;12.90;99.90
20714;DHT22;10518;50.742;4.226;2023-04-08T08:40:42;12.20;99.90
20714;DHT22;10518;50.742;4.226;2023-04-08T08:43:08;11.80;99.90
20714;DHT22;10518;50.742;4.226;2023-04-08T08:45:38;12.20;99.90
20714;DHT22;10518;50.742;4.226;2023-04-08T08:48:05;12.50;99.90
20714;DHT22;10518;50.742;4.226;2023-04-08T08:50:32;12.60;99.90
20714;DHT22;10518;50.742;4.226;2023-04-08T08:52:57;13.00;99.90
20714;DHT22;10518;50.742;4.226;2023-04-08T08:55:23;12.70;99.90
20714;DHT22;10518;50.742;4.226;2023-04-08T08:57:52;12.70;99.90
20714;DHT22;10518;50.742;4.226;2023-04-08T09:00:17;12.90;99.90
20714;DHT22;10518;50.742;4.226;2023-04-08T09:02:43;12.80;99.90
20714;DHT22;10518;50.742;4.226;2023-04-08T09:05:09;12.70;99.90
20714;DHT22;10518;50.742;4.226;2023-04-08T09:07:35;12.70;99.90
20714;DHT22;10518;50.742;4.226;2023-04-08T09:10:01;12.90;99.90
20714;DHT22;10518;50.742;4.226;2023-04-08T09:12:27;13.00;99.90
20714;DHT22;10518;50.742;4.226;2023-04-08T09:15:22;12.60;99.90
20714;DHT22;10518;50.742;4.226;2023-04-08T09:17:47;12.70;99.90
20714;DHT22;10518;50.742;4.226;2023-04-08T09:20:13;12.50;99.90
20714;DHT22;10518;50.742;4.226;2023-04-08T09:22:59;12.50;99.90
20714;DHT22;10518;50.742;4.226;2023-04-08T09:25:32;12.60;99.90
20714;DHT22;10518;50.742;4.226;2023-04-08T09:27:58;12.80;99.90
20714;DHT22;10518;50.742;4.226;2023-04-08T09:30:25;12.50;99.90
20714;DHT22;10518;50.742;4.226;2023-04-08T09:32:53;12.40;99.90
20714;DHT22;10518;50.742;4.226;2023-04-08T09:35:19;12.70;99.90
20714;DHT22;10518;50.742;4.226;2023-04-08T09:37:46;12.30;99.90
20714;DHT22;10518;50.742;4.226;2023-04-08T09:40:13;12.10;99.90
20714;DHT22;10518;50.742;4.226;2023-04-08T09:42:46;11.70;99.90
20714;DHT22;10518;50.742;4.226;2023-04-08T09:45:14;11.40;99.90
20714;DHT22;10518;50.742;4.226;2023-04-08T09:47:56;11.40;99.90
20714;DHT22;10518;50.742;4.226;2023-04-08T09:50:32;11.60;99.90
20714;DHT22;10518;50.742;4.226;2023-04-08T09:53:13;11.50;99.90
20714;DHT22;10518;50.742;4.226;2023-04-08T09:55:43;11.60;99.90
20714;DHT22;10518;50.742;4.226;2023-04-08T09:58:15;11.90;99.90
20714;DHT22;10518;50.742;4.226;2023-04-08T10:00:48;11.60;99.90
20714;DHT22;10518;50.742;4.226;2023-04-08T10:03:26;11.50;99.90
20714;DHT22;10518;50.742;4.226;2023-04-08T10:05:54;11.60;99.90
20714;DHT22;10518;50.742;4.226;2023-04-08T10:08:22;11.50;99.90
20714;DHT22;10518;50.742;4.226;2023-04-08T10:10:49;12.10;99.90
20714;DHT22;10518;50.742;4.226;2023-04-08T10:13:15;12.30;99.90
20714;DHT22;10518;50.742;4.226;2023-04-08T10:15:41;12.10;99.90
20714;DHT22;10518;50.742;4.226;2023-04-08T10:23:12;11.60;99.90
20714;DHT22;10518;50.742;4.226;2023-04-08T10:33:15;12.30;99.90
20714;DHT22;10518;50.742;4.226;2023-04-08T10:38:27;13.00;99.90
20714;DHT22;10518;50.742;4.226;2023-04-08T10:40:53;13.50;99.90
20714;DHT22;10518;50.742;4.226;2023-04-08T10:43:19;13.30;99.90
20714;DHT22;10518;50.742;4.226;2023-04-08T10:45:45;13.50;99.90
20714;DHT22;10518;50.742;4.226;2023-04-08T10:48:21;14.00;99.90
20714;DHT22;10518;50.742;4.226;2023-04-08T10:50:52;14.10;99.90
20714;DHT22;10518;50.742;4.226;2023-04-08T10:53:26;14.20;99.90
20714;DHT22;10518;50.742;4.226;2023-04-08T10:55:53;14.90;99.90
20714;DHT22;10518;50.742;4.226;2023-04-08T10:58:18;15.30;99.90
20714;DHT22;10518;50.742;4.226;2023-04-08T11:00:44;15.30;99.90
20714;DHT22;10518;50.742;4.226;2023-04-08T11:03:10;15.60;99.90
20714;DHT22;10518;50.742;4.226;2023-04-08T11:05:37;14.60;99.90
20714;DHT22;10518;50.742;4.226;2023-04-08T11:08:03;14.20;99.90
20714;DHT22;10518;50.742;4.226;2023-04-08T11:10:29;13.50;99.90
20714;DHT22;10518;50.742;4.226;2023-04-08T11:12:56;13.30;99.90
20714;DHT22;10518;50.742;4.226;2023-04-08T11:15:28;13.50;99.90
20714;DHT22;10518;50.742;4.226;2023-04-08T11:17:54;13.50;99.90
20714;DHT22;10518;50.742;4.226;2023-04-08T11:20:20;13.70;99.90
20714;DHT22;10518;50.742;4.226;2023-04-08T11:22:47;14.00;99.90
20714;DHT22;10518;50.742;4.226;2023-04-08T11:25:13;13.80;99.90
20714;DHT22;10518;50.742;4.226;2023-04-08T11:27:39;13.40;99.90
20714;DHT22;10518;50.742;4.226;2023-04-08T11:30:06;13.50;99.90
20714;DHT22;10518;50.742;4.226;2023-04-08T11:32:34;13.70;99.90
20714;DHT22;10518;50.742;4.226;2023-04-08T11:35:00;13.80;99.90
20714;DHT22;10518;50.742;4.226;2023-04-08T11:37:35;13.40;99.90
20714;DHT22;10518;50.742;4.226;2023-04-08T11:40:00;13.60;99.90
20714;DHT22;10518;50.742;4.226;2023-04-08T11:42:28;13.70;99.90
20714;DHT22;10518;50.742;4.226;2023-04-08T11:44:54;13.50;99.90
20714;DHT22;10518;50.742;4.226;2023-04-08T11:47:20;13.30;99.90
20714;DHT22;10518;50.742;4.226;2023-04-08T11:49:46;13.30;99.90
20714;DHT22;10518;50.742;4.226;2023-04-08T11:52:12;13.30;99.90
20714;DHT22;10518;50.742;4.226;2023-04-08T11:54:41;13.40;99.90
20714;DHT22;10518;50.742;4.226;2023-04-08T11:57:07;13.30;99.90
20714;DHT22;10518;50.742;4.226;2023-04-08T11:59:36;13.30;99.90
20714;DHT22;10518;50.742;4.226;2023-04-08T12:02:02;13.20;99.90
20714;DHT22;10518;50.742;4.226;2023-04-08T12:04:28;13.60;99.90
20714;DHT22;10518;50.742;4.226;2023-04-08T12:06:54;14.10;99.90
20714;DHT22;10518;50.742;4.226;2023-04-08T12:09:20;14.20;99.90
20714;DHT22;10518;50.742;4.226;2023-04-08T12:11:46;14.30;99.90
20714;DHT22;10518;50.742;4.226;2023-04-08T12:14:12;14.30;99.90
20714;DHT22;10518;50.742;4.226;2023-04-08T12:16:37;14.60;99.90
20714;DHT22;10518;50.742;4.226;2023-04-08T12:19:03;15.10;99.90
20714;DHT22;10518;50.742;4.226;2023-04-08T12:21:28;15.20;99.90
20714;DHT22;10518;50.742;4.226;2023-04-08T12:23:54;15.60;99.90
20714;DHT22;10518;50.742;4.226;2023-04-08T12:26:19;15.80;99.90
20714;DHT22;10518;50.742;4.226;2023-04-08T12:28:45;15.70;99.90
20714;DHT22;10518;50.742;4.226;2023-04-08T12:31:11;15.90;99.90
20714;DHT22;10518;50.742;4.226;2023-04-08T12:33:37;16.10;99.90
20714;DHT22;10518;50.742;4.226;2023-04-08T12:36:03;15.80;99.90
20714;DHT22;10518;50.742;4.226;2023-04-08T12:38:28;16.00;99.90
20714;DHT22;10518;50.742;4.226;2023-04-08T12:40:54;16.20;99.90
20714;DHT22;10518;50.742;4.226;2023-04-08T12:43:21;16.20;99.90
20714;DHT22;10518;50.742;4.226;2023-04-08T12:45:47;16.50;99.90
20714;DHT22;10518;50.742;4.226;2023-04-08T12:48:13;16.00;99.90
20714;DHT22;10518;50.742;4.226;2023-04-08T12:50:39;16.20;99.90
20714;DHT22;10518;50.742;4.226;2023-04-08T12:53:04;16.50;99.90
20714;DHT22;10518;50.742;4.226;2023-04-08T12:55:30;16.80;99.90
20714;DHT22;10518;50.742;4.226;2023-04-08T12:57:56;16.70;99.90
20714;DHT22;10518;50.742;4.226;2023-04-08T13:00:21;16.50;99.90
20714;DHT22;10518;50.742;4.226;2023-04-08T13:02:47;16.50;99.90
20714;DHT22;10518;50.742;4.226;2023-04-08T13:05:12;16.60;99.90
20714;DHT22;10518;50.742;4.226;2023-04-08T13:07:38;15.80;99.90
20714;DHT22;10518;50.742;4.226;2023-04-08T13:10:04;15.70;99.90
20714;DHT22;10518;50.742;4.226;2023-04-08T13:12:31;16.00;99.90
20714;DHT22;10518;50.742;4.226;2023-04-08T13:14:57;15.90;99.90
20714;DHT22;10518;50.742;4.226;2023-04-08T13:17:23;15.80;99.90
20714;DHT22;10518;50.742;4.226;2023-04-08T13:19:48;15.90;99.90
20714;DHT22;10518;50.742;4.226;2023-04-08T13:22:15;15.60;99.90
20714;DHT22;10518;50.742;4.226;2023-04-08T13:24:40;16.00;99.90
20714;DHT22;10518;50.742;4.226;2023-04-08T13:27:06;15.70;99.90
20714;DHT22;10518;50.742;4.226;2023-04-08T13:29:32;15.80;99.90
20714;DHT22;10518;50.742;4.226;2023-04-08T13:31:58;15.60;99.90
20714;DHT22;10518;50.742;4.226;2023-04-08T13:34:23;15.20;99.90
20714;DHT22;10518;50.742;4.226;2023-04-08T13:36:49;15.50;99.90
20714;DHT22;10518;50.742;4.226;2023-04-08T13:39:15;15.50;99.90
20714;DHT22;10518;50.742;4.226;2023-04-08T13:41:40;15.70;99.90
20714;DHT22;10518;50.742;4.226;2023-04-08T13:44:06;15.50;99.90
20714;DHT22;10518;50.742;4.226;2023-04-08T13:46:31;15.20;99.90
20714;DHT22;10518;50.742;4.226;2023-04-08T13:48:57;15.10;99.90
20714;DHT22;10518;50.742;4.226;2023-04-08T13:51:23;15.00;99.90
20714;DHT22;10518;50.742;4.226;2023-04-08T13:53:48;15.40;99.90
20714;DHT22;10518;50.742;4.226;2023-04-08T13:56:14;15.60;99.90
20714;DHT22;10518;50.742;4.226;2023-04-08T13:58:39;15.70;99.90
20714;DHT22;10518;50.742;4.226;2023-04-08T14:01:05;15.60;99.90
20714;DHT22;10518;50.742;4.226;2023-04-08T14:03:31;15.60;99.90
20714;DHT22;10518;50.742;4.226;2023-04-08T14:05:56;16.20;99.90
20714;DHT22;10518;50.742;4.226;2023-04-08T14:08:23;16.40;99.90
20714;DHT22;10518;50.742;4.226;2023-04-08T14:10:51;16.40;99.90
20714;DHT22;10518;50.742;4.226;2023-04-08T14:13:17;16.50;99.90
20714;DHT22;10518;50.742;4.226;2023-04-08T14:15:43;16.50;99.90
20714;DHT22;10518;50.742;4.226;2023-04-08T14:18:08;16.40;99.90
20714;DHT22;10518;50.742;4.226;2023-04-08T14:20:34;15.90;99.90
20714;DHT22;10518;50.742;4.226;2023-04-08T14:23:00;15.80;99.90
20714;DHT22;10518;50.742;4.226;2023-04-08T14:25:26;15.40;99.90
20714;DHT22;10518;50.742;4.226;2023-04-08T14:27:51;15.70;99.90
20714;DHT22;10518;50.742;4.226;2023-04-08T14:30:17;15.80;99.90
20714;DHT22;10518;50.742;4.226;2023-04-08T14:32:43;15.70;99.90
20714;DHT22;10518;50.742;4.226;2023-04-08T14:35:08;15.70;99.90
20714;DHT22;10518;50.742;4.226;2023-04-08T14:37:34;15.80;99.90
20714;DHT22;10518;50.742;4.226;2023-04-08T14:40:03;15.60;99.90
20714;DHT22;10518;50.742;4.226;2023-04-08T14:42:28;15.60;99.90
20714;DHT22;10518;50.742;4.226;2023-04-08T14:44:54;15.90;99.90
20714;DHT22;10518;50.742;4.226;2023-04-08T14:47:22;15.90;99.90
20714;DHT22;10518;50.742;4.226;2023-04-08T14:49:47;15.60;99.90
20714;DHT22;10518;50.742;4.226;2023-04-08T14:52:13;15.20;99.90
20714;DHT22;10518;50.742;4.226;2023-04-08T14:54:39;15.00;99.90
20714;DHT22;10518;50.742;4.226;2023-04-08T14:57:05;14.80;99.90
20714;DHT22;10518;50.742;4.226;2023-04-08T14:59:31;14.70;99.90
20714;DHT22;10518;50.742;4.226;2023-04-08T15:01:57;14.80;99.90
20714;DHT22;10518;50.742;4.226;2023-04-08T15:04:23;14.90;99.90
20714;DHT22;10518;50.742;4.226;2023-04-08T15:06:48;15.20;99.90
20714;DHT22;10518;50.742;4.226;2023-04-08T15:09:14;15.30;99.90
20714;DHT22;10518;50.742;4.226;2023-04-08T15:11:40;15.50;99.90
20714;DHT22;10518;50.742;4.226;2023-04-08T15:14:06;15.90;99.90
20714;DHT22;10518;50.742;4.226;2023-04-08T15:16:31;16.40;99.90
20714;DHT22;10518;50.742;4.226;2023-04-08T15:18:57;16.20;99.90
20714;DHT22;10518;50.742;4.226;2023-04-08T15:21:25;16.30;99.90
20714;DHT22;10518;50.742;4.226;2023-04-08T15:23:51;16.20;99.90
20714;DHT22;10518;50.742;4.226;2023-04-08T15:26:17;16.10;99.90
20714;DHT22;10518;50.742;4.226;2023-04-08T15:28:42;15.80;99.90
20714;DHT22;10518;50.742;4.226;2023-04-08T15:31:08;15.30;99.90
20714;DHT22;10518;50.742;4.226;2023-04-08T15:33:34;15.20;99.90
20714;DHT22;10518;50.742;4.226;2023-04-08T15:36:03;15.20;99.90
20714;DHT22;10518;50.742;4.226;2023-04-08T15:38:29;15.00;99.90
20714;DHT22;10518;50.742;4.226;2023-04-08T15:40:55;14.90;99.90
20714;DHT22;10518;50.742;4.226;2023-04-08T15:43:21;14.80;99.90
20714;DHT22;10518;50.742;4.226;2023-04-08T15:45:46;14.70;99.90
20714;DHT22;10518;50.742;4.226;2023-04-08T15:48:12;14.60;99.90